createdAt,value
2023-04-06T00:00:02.025Z,74.11
2023-04-06T00:02:31.231Z,74.38
2023-04-06T00:04:59.018Z,74.26
2023-04-06T00:07:27.154Z,74.53
2023-04-06T00:09:54.936Z,72.41
2023-04-06T00:12:22.815Z,70.42
2023-04-06T00:14:50.545Z,70.91
2023-04-06T00:17:18.273Z,71.57
2023-04-06T00:19:47.343Z,70.59
2023-04-06T00:22:15.113Z,70.06
2023-04-06T00:24:42.890Z,70.35
2023-04-06T00:27:10.646Z,72.57
2023-04-06T00:29:39.668Z,72.06
2023-04-06T00:32:07.571Z,70.54
2023-04-06T00:34:35.532Z,70.50
2023-04-06T00:37:04.848Z,70.67
2023-04-06T00:39:32.585Z,71.47
2023-04-06T00:42:01.450Z,70.39
2023-04-06T00:44:29.233Z,69.17
2023-04-06T00:46:57.050Z,69.23
2023-04-06T00:49:24.821Z,68.99
2023-04-06T00:51:52.633Z,68.85
2023-04-06T00:54:21.743Z,67.58
2023-04-06T00:56:49.519Z,67.75
2023-04-06T00:59:17.451Z,68.31
2023-04-06T01:01:45.582Z,68.66
2023-04-06T01:04:13.726Z,68.73
2023-04-06T01:06:41.877Z,67.43
2023-04-06T01:09:09.942Z,68.63
2023-04-06T01:11:39.228Z,68.53
2023-04-06T01:14:07.082Z,68.94
2023-04-06T01:16:35.196Z,69.75
2023-04-06T01:19:03.024Z,71.02
2023-04-06T01:21:30.981Z,73.01
2023-04-06T01:24:00.341Z,71.34
2023-04-06T01:26:30.237Z,71.07
2023-04-06T01:28:58.158Z,69.99
2023-04-06T01:31:26.313Z,68.32
2023-04-06T01:33:54.588Z,70.29
2023-04-06T01:36:22.749Z,70.41
2023-04-06T01:38:50.638Z,71.40
2023-04-06T01:41:19.757Z,73.35
2023-04-06T01:43:48.009Z,72.83
2023-04-06T01:46:15.889Z,73.90
2023-04-06T01:48:43.886Z,73.44
2023-04-06T01:51:11.656Z,71.86
2023-04-06T01:53:39.420Z,73.28
2023-04-06T01:56:08.046Z,71.32
2023-04-06T01:58:37.371Z,77.20
2023-04-06T02:01:05.234Z,75.83
2023-04-06T02:03:33.003Z,73.08
2023-04-06T02:06:00.808Z,76.26
2023-04-06T02:08:28.561Z,77.64
2023-04-06T02:10:56.287Z,77.37
2023-04-06T02:13:24.070Z,76.33
2023-04-06T02:15:53.180Z,74.46
2023-04-06T02:18:21.075Z,73.63
2023-04-06T02:20:48.927Z,72.95
2023-04-06T02:23:16.702Z,71.24
2023-04-06T02:25:44.451Z,75.24
2023-04-06T02:28:12.173Z,76.74
2023-04-06T02:30:39.978Z,75.02
2023-04-06T02:33:09.122Z,74.81
2023-04-06T02:35:36.991Z,75.55
2023-04-06T02:38:04.790Z,77.01
2023-04-06T02:40:32.534Z,78.46
2023-04-06T02:43:00.311Z,78.79
2023-04-06T02:45:28.353Z,78.45
2023-04-06T02:47:56.215Z,76.75
2023-04-06T02:50:25.429Z,76.03
2023-04-06T02:52:54.458Z,78.44
2023-04-06T02:55:22.556Z,75.73
2023-04-06T02:57:50.538Z,73.62
2023-04-06T03:00:18.794Z,76.80
2023-04-06T03:02:46.592Z,75.60
2023-04-06T03:05:14.442Z,73.70
2023-04-06T03:07:43.510Z,71.93
2023-04-06T03:10:11.638Z,72.98
2023-04-06T03:12:39.535Z,72.86
2023-04-06T03:15:08.074Z,74.08
2023-04-06T03:17:35.865Z,73.22
2023-04-06T03:20:03.684Z,74.17
2023-04-06T03:22:31.562Z,74.08
2023-04-06T03:25:03.467Z,73.05
2023-04-06T03:27:31.578Z,72.81
2023-04-06T03:29:59.328Z,71.65
2023-04-06T03:32:27.186Z,71.99
2023-04-06T03:34:54.935Z,72.12
2023-04-06T03:37:22.673Z,71.82
2023-04-06T03:39:50.472Z,71.26
2023-04-06T03:42:19.619Z,72.50
2023-04-06T03:44:47.460Z,74.58
2023-04-06T03:47:15.509Z,73.09
2023-04-06T03:49:43.296Z,72.69
2023-04-06T03:52:11.242Z,72.72
2023-04-06T03:54:39.234Z,72.30
2023-04-06T03:57:06.969Z,72.25
2023-04-06T03:59:36.222Z,74.41
2023-04-06T04:02:04.060Z,72.99
2023-04-06T04:04:31.878Z,72.36
2023-04-06T04:06:59.634Z,73.97
2023-04-06T04:09:29.708Z,73.88
2023-04-06T04:11:57.683Z,72.49
2023-04-06T04:14:26.410Z,72.42
2023-04-06T04:16:55.576Z,74.24
2023-04-06T04:19:23.297Z,74.28
2023-04-06T04:21:51.066Z,72.79
2023-04-06T04:24:18.839Z,74.32
2023-04-06T04:26:46.591Z,75.47
2023-04-06T04:29:14.323Z,75.26
2023-04-06T04:31:42.404Z,77.12
2023-04-06T04:34:11.552Z,77.29
2023-04-06T04:36:39.297Z,76.73
2023-04-06T04:39:07.357Z,74.39
2023-04-06T04:41:36.452Z,76.40
2023-04-06T04:44:04.219Z,74.54
2023-04-06T04:46:31.982Z,73.03
2023-04-06T04:48:59.698Z,74.07
2023-04-06T04:51:28.737Z,75.05
2023-04-06T04:53:56.435Z,74.39
2023-04-06T04:56:24.133Z,74.69
2023-04-06T04:58:51.935Z,74.37
2023-04-06T05:01:19.785Z,76.04
2023-04-06T05:03:48.171Z,75.83
2023-04-06T05:06:16.090Z,75.37
2023-04-06T05:08:45.297Z,74.83
2023-04-06T05:11:13.381Z,74.81
2023-04-06T05:13:41.432Z,74.04
2023-04-06T05:16:09.239Z,73.85
2023-04-06T05:18:37.461Z,73.88
2023-04-06T05:21:05.358Z,71.83
2023-04-06T05:23:33.102Z,74.67
2023-04-06T05:26:02.297Z,74.08
2023-04-06T05:28:30.124Z,74.37
2023-04-06T05:30:57.973Z,73.71
2023-04-06T05:33:26.347Z,73.06
2023-04-06T05:35:54.208Z,72.41
2023-04-06T05:38:22.136Z,71.30
2023-04-06T05:40:49.880Z,69.63
2023-04-06T05:43:20.537Z,67.15
2023-04-06T05:45:49.542Z,68.25
2023-04-06T05:48:17.258Z,64.45
2023-04-06T05:50:45.227Z,62.73
2023-04-06T05:53:12.940Z,63.68
2023-04-06T05:55:40.715Z,63.50
2023-04-06T05:58:08.487Z,60.75
2023-04-06T06:00:37.748Z,59.69
2023-04-06T06:03:07.010Z,58.03
2023-04-06T06:05:34.882Z,55.75
2023-04-06T06:08:03.119Z,55.17
2023-04-06T06:10:31.145Z,53.62
2023-04-06T06:12:58.932Z,50.62
2023-04-06T06:15:27.039Z,47.87
2023-04-06T06:17:56.237Z,42.90
2023-04-06T06:20:24.099Z,42.33
2023-04-06T06:22:51.812Z,40.70
2023-04-06T06:25:19.981Z,40.71
2023-04-06T06:27:47.854Z,40.12
2023-04-06T06:30:16.194Z,38.39
2023-04-06T06:32:44.024Z,39.39
2023-04-06T06:35:13.156Z,38.99
2023-04-06T06:37:40.939Z,37.29
2023-04-06T06:40:11.256Z,34.16
2023-04-06T06:42:39.076Z,34.18
2023-04-06T06:45:09.226Z,33.08
2023-04-06T06:47:37.011Z,32.67
2023-04-06T06:50:05.390Z,32.64
2023-04-06T06:52:34.633Z,33.36
2023-04-06T06:55:02.372Z,33.49
2023-04-06T06:57:30.256Z,31.95
2023-04-06T06:59:57.990Z,32.35
2023-04-06T07:02:25.796Z,35.15
2023-04-06T07:04:53.735Z,35.67
2023-04-06T07:07:21.670Z,34.81
2023-04-06T07:09:50.909Z,38.28
2023-04-06T07:12:18.668Z,37.82
2023-04-06T07:14:46.531Z,37.86
2023-04-06T07:17:14.465Z,36.30
2023-04-06T07:19:42.681Z,36.74
2023-04-06T07:22:10.642Z,37.55
2023-04-06T07:24:38.483Z,37.04
2023-04-06T07:27:08.143Z,35.84
2023-04-06T07:29:35.969Z,36.55
2023-04-06T07:32:03.882Z,37.54
2023-04-06T07:34:31.726Z,36.32
2023-04-06T07:37:01.108Z,35.31
2023-04-06T07:39:30.495Z,36.00
2023-04-06T07:41:58.244Z,35.18
2023-04-06T07:44:27.404Z,37.12
2023-04-06T07:46:55.149Z,37.24
2023-04-06T07:49:23.939Z,38.90
2023-04-06T07:51:51.834Z,36.33
2023-04-06T07:54:19.543Z,33.70
2023-04-06T07:56:47.317Z,33.94
2023-04-06T07:59:15.115Z,35.63
2023-04-06T08:01:44.219Z,33.87
2023-04-06T08:04:12.259Z,34.10
2023-04-06T08:06:41.959Z,34.25
2023-04-06T08:09:09.753Z,34.11
2023-04-06T08:11:37.641Z,31.15
2023-04-06T08:14:05.399Z,31.03
2023-04-06T08:16:33.104Z,31.44
2023-04-06T08:19:02.234Z,33.49
2023-04-06T08:21:30.034Z,38.23
2023-04-06T08:23:57.751Z,36.26
2023-04-06T08:26:26.450Z,35.20
2023-04-06T08:28:54.144Z,34.36
2023-04-06T08:31:22.108Z,33.94
2023-04-06T08:33:49.871Z,37.08
2023-04-06T08:36:23.457Z,37.56
2023-04-06T08:38:51.828Z,36.03
2023-04-06T08:41:20.317Z,36.93
2023-04-06T08:43:51.090Z,37.40
2023-04-06T08:46:20.535Z,38.42
2023-04-06T08:48:50.896Z,35.39
2023-04-06T08:51:21.236Z,34.89
2023-04-06T08:53:50.895Z,34.82
2023-04-06T08:56:18.977Z,36.25
2023-04-06T08:58:47.207Z,35.54
2023-04-06T09:01:16.609Z,35.84
2023-04-06T09:03:45.708Z,35.65
2023-04-06T09:06:15.284Z,37.21
2023-04-06T09:08:44.649Z,38.03
2023-04-06T09:11:13.047Z,37.07
2023-04-06T09:13:47.977Z,35.31
2023-04-06T09:16:16.341Z,34.63
2023-04-06T09:18:44.466Z,36.64
2023-04-06T09:21:13.159Z,38.57
2023-04-06T09:23:41.352Z,40.48
2023-04-06T09:26:12.001Z,41.69
2023-04-06T09:28:50.881Z,41.53
2023-04-06T09:31:24.690Z,40.04
2023-04-06T09:33:53.046Z,39.95
2023-04-06T09:36:21.435Z,41.40
2023-04-06T09:38:56.403Z,40.55
2023-04-06T09:41:27.231Z,41.57
2023-04-06T09:44:04.014Z,40.37
2023-04-06T09:46:43.410Z,41.66
2023-04-06T09:49:20.673Z,40.27
2023-04-06T09:51:55.388Z,40.75
2023-04-06T09:54:24.700Z,40.26
2023-04-06T09:57:00.647Z,39.69
2023-04-06T09:59:38.219Z,40.03
2023-04-06T10:02:07.778Z,40.04
2023-04-06T10:04:43.450Z,38.92
2023-04-06T10:07:14.104Z,40.06
2023-04-06T10:09:42.170Z,39.95
2023-04-06T10:12:11.685Z,40.38
2023-04-06T10:14:39.724Z,38.92
2023-04-06T10:17:07.642Z,39.15
2023-04-06T10:19:42.924Z,38.16
2023-04-06T10:22:14.002Z,38.81
2023-04-06T10:24:42.299Z,38.87
2023-04-06T10:27:12.251Z,39.04
2023-04-06T10:29:47.610Z,38.66
2023-04-06T10:32:15.533Z,38.92
2023-04-06T10:34:43.370Z,39.09
2023-04-06T10:37:19.896Z,39.34
2023-04-06T10:39:48.534Z,38.99
2023-04-06T10:42:18.220Z,38.92
2023-04-06T10:44:46.537Z,40.47
2023-04-06T10:47:20.908Z,38.56
2023-04-06T10:49:48.755Z,38.98
2023-04-06T10:52:16.544Z,38.64
2023-04-06T10:54:46.946Z,38.41
2023-04-06T10:57:17.524Z,39.45
2023-04-06T10:59:47.073Z,38.24
2023-04-06T11:02:22.684Z,39.30
2023-04-06T11:04:58.341Z,38.24
2023-04-06T11:07:27.728Z,38.57
2023-04-06T11:10:12.343Z,38.71
2023-04-06T11:12:44.716Z,39.85
2023-04-06T11:15:12.984Z,39.67
2023-04-06T11:17:40.838Z,38.86
2023-04-06T11:20:12.922Z,39.62
2023-04-06T11:22:51.152Z,38.93
2023-04-06T11:25:19.193Z,38.61
2023-04-06T11:27:48.921Z,38.02
2023-04-06T11:30:17.323Z,39.50
2023-04-06T11:32:46.610Z,37.56
2023-04-06T11:35:21.993Z,37.46
2023-04-06T11:37:51.432Z,36.17
2023-04-06T11:40:23.644Z,36.86
2023-04-06T11:42:56.165Z,36.27
2023-04-06T11:45:24.381Z,36.41
2023-04-06T11:47:58.824Z,35.79
2023-04-06T11:50:26.671Z,35.84
2023-04-06T11:53:02.337Z,37.60
2023-04-06T11:55:32.283Z,35.94
2023-04-06T11:58:02.734Z,36.37
2023-04-06T12:00:35.361Z,36.27
2023-04-06T12:03:03.237Z,35.69
2023-04-06T12:05:31.208Z,36.27
2023-04-06T12:08:01.110Z,35.57
2023-04-06T12:10:31.376Z,34.39
2023-04-06T12:12:59.314Z,35.68
2023-04-06T12:15:28.532Z,34.61
2023-04-06T12:17:56.266Z,35.33
2023-04-06T12:20:27.066Z,35.38
2023-04-06T12:22:55.605Z,35.80
2023-04-06T12:25:23.343Z,35.93
2023-04-06T12:27:51.237Z,35.41
2023-04-06T12:30:19.181Z,35.85
2023-04-06T12:32:50.905Z,34.57
2023-04-06T12:35:19.273Z,35.59
2023-04-06T12:37:46.956Z,34.90
2023-04-06T12:40:15.787Z,34.94
2023-04-06T12:42:43.747Z,34.53
2023-04-06T12:45:12.449Z,34.45
2023-04-06T12:47:40.414Z,34.64
2023-04-06T12:50:10.530Z,34.87
2023-04-06T12:52:38.311Z,34.83
2023-04-06T12:55:07.144Z,34.76
2023-04-06T12:57:34.883Z,35.07
2023-04-06T13:00:02.809Z,34.60
2023-04-06T13:02:32.014Z,34.64
2023-04-06T13:04:59.939Z,35.00
2023-04-06T13:07:29.109Z,35.43
2023-04-06T13:09:56.869Z,35.38
2023-04-06T13:12:24.709Z,35.44
2023-04-06T13:14:53.572Z,35.32
2023-04-06T13:17:22.061Z,35.38
2023-04-06T13:19:49.843Z,36.52
2023-04-06T13:22:17.964Z,36.44
2023-04-06T13:24:47.314Z,35.03
2023-04-06T13:27:15.373Z,36.41
2023-04-06T13:29:43.152Z,35.54
2023-04-06T13:32:11.547Z,35.31
2023-04-06T13:34:39.288Z,34.89
2023-04-06T13:37:06.986Z,34.69
2023-04-06T13:39:34.766Z,34.82
2023-04-06T13:42:04.134Z,35.32
2023-04-06T13:44:32.028Z,33.63
2023-04-06T13:47:00.637Z,33.51
2023-04-06T13:49:28.748Z,33.96
2023-04-06T13:51:56.500Z,33.96
2023-04-06T13:54:24.085Z,34.02
2023-04-06T13:56:53.433Z,33.42
2023-04-06T13:59:22.645Z,33.01
2023-04-06T14:01:50.781Z,33.46
2023-04-06T14:04:18.526Z,34.36
2023-04-06T14:06:47.266Z,33.98
2023-04-06T14:09:14.909Z,35.24
2023-04-06T14:11:42.515Z,33.27
2023-04-06T14:14:10.668Z,34.54
2023-04-06T14:16:39.729Z,34.49
2023-04-06T14:19:07.353Z,34.55
2023-04-06T14:21:35.016Z,34.65
2023-04-06T14:24:02.740Z,33.26
2023-04-06T14:26:30.393Z,32.96
2023-04-06T14:28:58.067Z,33.58
2023-04-06T14:31:25.824Z,32.79
2023-04-06T14:33:54.975Z,33.54
2023-04-06T14:36:37.209Z,34.64
2023-04-06T14:39:06.805Z,34.54
2023-04-06T14:41:35.677Z,33.85
2023-04-06T14:44:03.865Z,33.46
2023-04-06T14:46:31.542Z,33.99
2023-04-06T14:49:00.685Z,33.94
2023-04-06T14:51:29.166Z,33.42
2023-04-06T14:53:58.504Z,33.87
2023-04-06T14:56:26.579Z,33.70
2023-04-06T14:58:54.676Z,32.11
2023-04-06T15:01:22.464Z,32.88
2023-04-06T15:03:50.423Z,33.23
2023-04-06T15:06:21.473Z,33.95
2023-04-06T15:08:50.719Z,33.61
2023-04-06T15:11:18.429Z,33.71
2023-04-06T15:13:46.240Z,32.90
2023-04-06T15:16:15.568Z,33.90
2023-04-06T15:18:43.258Z,33.52
2023-04-06T15:21:12.714Z,33.27
2023-04-06T15:23:41.664Z,32.84
2023-04-06T15:26:09.332Z,32.86
2023-04-06T15:28:37.019Z,32.40
2023-04-06T15:31:07.157Z,33.04
2023-04-06T15:33:34.951Z,32.73
2023-04-06T15:36:08.625Z,32.92
2023-04-06T15:38:36.282Z,33.91
2023-04-06T15:41:05.441Z,33.41
2023-04-06T15:43:33.084Z,33.73
2023-04-06T15:46:01.443Z,34.23
2023-04-06T15:48:31.876Z,34.43
2023-04-06T15:50:59.993Z,34.10
2023-04-06T15:53:27.844Z,34.01
2023-04-06T15:55:59.954Z,34.19
2023-04-06T15:58:28.932Z,33.91
2023-04-06T16:00:56.671Z,34.15
2023-04-06T16:03:24.553Z,34.88
2023-04-06T16:08:26.952Z,34.39
2023-04-06T16:10:54.596Z,34.59
2023-04-06T16:13:22.185Z,35.89
2023-04-06T16:15:52.412Z,35.34
2023-04-06T16:18:20.373Z,35.53
2023-04-06T16:20:47.991Z,34.98
2023-04-06T16:23:15.638Z,34.38
2023-04-06T16:25:43.332Z,35.58
2023-04-06T16:28:11.000Z,35.60
2023-04-06T16:30:38.669Z,33.67
2023-04-06T16:33:07.856Z,35.57
2023-04-06T16:35:35.521Z,35.84
2023-04-06T16:38:03.169Z,35.21
2023-04-06T16:40:31.128Z,35.71
2023-04-06T16:42:59.444Z,35.40
2023-04-06T16:45:27.111Z,35.52
2023-04-06T16:47:54.778Z,35.37
2023-04-06T16:50:23.754Z,35.49
2023-04-06T16:52:51.386Z,35.49
2023-04-06T16:55:19.052Z,35.77
2023-04-06T16:57:49.087Z,35.84
2023-04-06T17:00:17.915Z,36.02
2023-04-06T17:02:48.040Z,35.61
2023-04-06T17:05:18.056Z,35.34
2023-04-06T17:07:46.977Z,35.70
2023-04-06T17:10:14.544Z,35.79
2023-04-06T17:12:42.151Z,35.51
2023-04-06T17:15:10.565Z,35.40
2023-04-06T17:17:39.007Z,36.21
2023-04-06T17:20:07.938Z,35.87
2023-04-06T17:22:36.224Z,36.32
2023-04-06T17:25:06.778Z,36.85
2023-04-06T17:27:34.493Z,37.11
2023-04-06T17:30:06.367Z,36.93
2023-04-06T17:32:35.024Z,37.19
2023-04-06T17:35:02.820Z,37.79
2023-04-06T17:37:30.532Z,37.52
2023-04-06T17:39:58.945Z,37.65
2023-04-06T17:42:27.950Z,37.89
2023-04-06T17:44:55.581Z,37.68
2023-04-06T17:47:25.680Z,38.61
2023-04-06T17:49:53.345Z,38.44
2023-04-06T17:52:21.004Z,39.55
2023-04-06T17:54:50.631Z,38.97
2023-04-06T17:57:18.222Z,39.08
2023-04-06T17:59:47.246Z,39.58
2023-04-06T18:02:15.039Z,40.78
2023-04-06T18:04:44.167Z,41.58
2023-04-06T18:07:12.381Z,41.09
2023-04-06T18:09:40.778Z,42.38
2023-04-06T18:12:08.561Z,42.45
2023-04-06T18:14:36.596Z,42.44
2023-04-06T18:17:05.571Z,43.07
2023-04-06T18:19:34.400Z,43.30
2023-04-06T18:22:01.992Z,44.23
2023-04-06T18:24:41.531Z,43.67
2023-04-06T18:27:10.522Z,43.71
2023-04-06T18:29:38.138Z,44.10
2023-04-06T18:32:07.561Z,43.48
2023-04-06T18:34:35.260Z,43.18
2023-04-06T18:37:03.281Z,43.79
2023-04-06T18:39:31.326Z,43.97
2023-04-06T18:41:59.502Z,45.47
2023-04-06T18:44:27.110Z,44.73
2023-04-06T18:46:55.625Z,45.45
2023-04-06T18:49:24.812Z,45.35
2023-04-06T18:51:53.601Z,44.86
2023-04-06T18:54:21.419Z,46.32
2023-04-06T18:56:49.318Z,46.72
2023-04-06T18:59:17.777Z,45.85
2023-04-06T19:01:46.836Z,46.10
2023-04-06T19:04:14.800Z,46.07
2023-04-06T19:06:44.159Z,47.21
2023-04-06T19:09:11.784Z,46.67
2023-04-06T19:11:39.619Z,47.04
2023-04-06T19:14:07.263Z,47.37
2023-04-06T19:16:40.757Z,47.22
2023-04-06T19:19:08.587Z,46.61
2023-04-06T19:21:36.263Z,46.99
2023-04-06T19:24:06.038Z,47.14
2023-04-06T19:26:34.152Z,47.33
2023-04-06T19:29:01.855Z,46.54
2023-04-06T19:31:29.515Z,47.15
2023-04-06T19:33:57.363Z,47.08
2023-04-06T19:36:25.041Z,47.03
2023-04-06T19:38:52.785Z,48.06
2023-04-06T19:41:22.337Z,47.35
2023-04-06T19:43:49.995Z,47.26
2023-04-06T19:46:17.719Z,47.69
2023-04-06T19:48:45.416Z,48.65
2023-04-06T19:51:13.455Z,48.13
2023-04-06T19:53:41.217Z,48.17
2023-04-06T19:56:10.083Z,49.11
2023-04-06T19:58:40.036Z,49.25
2023-04-06T20:01:07.711Z,48.30
2023-04-06T20:03:36.463Z,48.80
2023-04-06T20:06:04.414Z,48.77
2023-04-06T20:08:32.057Z,49.22
2023-04-06T20:11:02.375Z,48.97
2023-04-06T20:13:30.444Z,49.28
2023-04-06T20:16:00.472Z,49.50
2023-04-06T20:18:28.269Z,49.21
2023-04-06T20:20:56.197Z,49.59
2023-04-06T20:23:24.170Z,50.05
2023-04-06T20:25:51.783Z,50.18
2023-04-06T20:28:19.577Z,49.45
2023-04-06T20:30:51.479Z,50.24
2023-04-06T20:33:20.727Z,50.66
2023-04-06T20:35:48.341Z,50.87
2023-04-06T20:38:17.664Z,50.19
2023-04-06T20:40:51.839Z,50.01
2023-04-06T20:43:20.559Z,51.40
2023-04-06T20:45:48.577Z,51.42
2023-04-06T20:48:16.502Z,51.44
2023-04-06T20:50:55.728Z,50.96
2023-04-06T20:53:23.903Z,51.79
2023-04-06T20:55:51.577Z,51.48
2023-04-06T20:58:20.828Z,52.09
2023-04-06T21:00:49.594Z,52.05
2023-04-06T21:03:17.656Z,51.67
2023-04-06T21:05:52.732Z,52.31
2023-04-06T21:08:20.667Z,52.13
2023-04-06T21:10:48.300Z,51.83
2023-04-06T21:13:16.103Z,51.47
2023-04-06T21:15:44.114Z,52.51
2023-04-06T21:18:12.345Z,52.32
2023-04-06T21:20:40.198Z,51.98
2023-04-06T21:23:09.401Z,51.83
2023-04-06T21:25:37.696Z,51.96
2023-04-06T21:28:06.055Z,52.36
2023-04-06T21:30:36.980Z,52.34
2023-04-06T21:33:04.719Z,52.63
2023-04-06T21:35:32.660Z,52.45
2023-04-06T21:38:00.428Z,52.87
2023-04-06T21:40:29.426Z,52.82
2023-04-06T21:42:57.029Z,52.56
2023-04-06T21:45:24.647Z,52.32
2023-04-06T21:47:52.263Z,52.82
2023-04-06T21:50:20.140Z,53.03
2023-04-06T21:52:47.725Z,53.21
2023-04-06T21:55:15.641Z,53.68
2023-04-06T21:57:45.027Z,53.35
2023-04-06T22:00:13.800Z,53.40
2023-04-06T22:02:41.618Z,54.26
2023-04-06T22:05:10.110Z,54.20
2023-04-06T22:07:37.737Z,55.08
2023-04-06T22:10:06.124Z,54.95
2023-04-06T22:12:33.831Z,54.48
2023-04-06T22:15:03.057Z,54.95
2023-04-06T22:17:30.999Z,54.36
2023-04-06T22:19:58.682Z,55.61
2023-04-06T22:22:26.328Z,54.47
2023-04-06T22:24:54.032Z,55.76
2023-04-06T22:27:21.608Z,55.56
2023-04-06T22:29:49.246Z,55.58
2023-04-06T22:32:18.346Z,56.30
2023-04-06T22:34:46.381Z,56.03
2023-04-06T22:37:14.010Z,55.98
2023-04-06T22:39:41.656Z,57.14
2023-04-06T22:42:09.288Z,56.48
2023-04-06T22:44:36.897Z,56.38
2023-04-06T22:47:04.539Z,57.30
2023-04-06T22:49:33.545Z,57.45
2023-04-06T22:52:01.270Z,58.01
2023-04-06T22:54:28.921Z,58.23
2023-04-06T22:56:56.650Z,58.11
2023-04-06T22:59:24.468Z,57.82
2023-04-06T23:01:52.233Z,59.22
2023-04-06T23:04:20.865Z,59.73
2023-04-06T23:06:50.254Z,59.00
2023-04-06T23:09:17.889Z,59.37
2023-04-06T23:11:45.871Z,58.92
2023-04-06T23:14:13.524Z,59.60
2023-04-06T23:16:41.435Z,59.98
2023-04-06T23:19:09.109Z,59.90
2023-04-06T23:21:36.753Z,59.07
2023-04-06T23:24:06.310Z,60.29
2023-04-06T23:26:33.935Z,59.74
2023-04-06T23:29:01.655Z,60.47
2023-04-06T23:31:29.350Z,60.33
2023-04-06T23:33:56.990Z,60.83
2023-04-06T23:36:24.726Z,60.34
2023-04-06T23:38:52.347Z,60.49
2023-04-06T23:41:22.481Z,59.32
2023-04-06T23:43:50.445Z,60.81
2023-04-06T23:46:18.744Z,60.02
2023-04-06T23:48:46.717Z,60.96
2023-04-06T23:51:14.410Z,60.80
2023-04-06T23:53:42.201Z,60.63
2023-04-06T23:56:10.015Z,60.37
2023-04-06T23:58:39.071Z,60.90
